createdAt,value
2023-02-03T00:00:07.193Z,8.90
2023-02-03T00:03:13.184Z,9.00
2023-02-03T00:06:15.324Z,9.00
2023-02-03T00:09:17.391Z,9.00
2023-02-03T00:12:19.436Z,8.90
2023-02-03T00:15:21.451Z,8.90
2023-02-03T00:18:23.395Z,8.90
2023-02-03T00:21:25.319Z,8.90
2023-02-03T00:24:27.392Z,8.90
2023-02-03T00:27:29.227Z,8.90
2023-02-03T00:30:33.877Z,8.90
2023-02-03T00:33:35.764Z,8.90
2023-02-03T00:36:37.661Z,8.90
2023-02-03T00:39:39.780Z,8.90
2023-02-03T00:42:41.658Z,8.90
2023-02-03T00:45:43.519Z,8.90
2023-02-03T00:48:45.410Z,9.00
2023-02-03T00:51:48.149Z,8.90
2023-02-03T00:54:50.061Z,9.00
2023-02-03T00:57:52.167Z,8.90
2023-02-03T01:00:57.950Z,9.00
2023-02-03T01:04:00.513Z,8.90
2023-02-03T01:07:02.487Z,9.00
2023-02-03T01:10:05.873Z,9.00
2023-02-03T01:13:08.472Z,8.90
2023-02-03T01:16:12.622Z,8.90
2023-02-03T01:19:14.537Z,8.90
2023-02-03T01:22:16.523Z,9.00
2023-02-03T01:25:18.365Z,8.90
2023-02-03T01:28:21.683Z,8.90
2023-02-03T01:31:31.004Z,9.00
2023-02-03T01:34:33.171Z,9.00
2023-02-03T01:37:35.135Z,9.00
2023-02-03T01:40:45.933Z,8.90
2023-02-03T01:43:51.581Z,9.00
2023-02-03T01:46:54.245Z,9.00
2023-02-03T01:50:26.938Z,9.00
2023-02-03T01:53:29.528Z,9.00
2023-02-03T01:56:35.237Z,8.90
2023-02-03T01:59:37.369Z,8.90
2023-02-03T02:02:39.953Z,8.90
2023-02-03T02:05:56.768Z,8.80
2023-02-03T02:08:59.821Z,8.80
2023-02-03T02:12:01.682Z,8.70
2023-02-03T02:15:04.746Z,8.70
2023-02-03T02:18:23.969Z,8.60
2023-02-03T02:21:43.956Z,8.70
2023-02-03T02:24:55.286Z,8.70
2023-02-03T02:28:28.340Z,8.70
2023-02-03T02:31:46.345Z,8.70
2023-02-03T02:34:59.519Z,8.70
2023-02-03T02:38:12.452Z,8.70
2023-02-03T02:41:27.877Z,8.70
2023-02-03T02:44:35.511Z,8.60
2023-02-03T02:47:38.644Z,8.60
2023-02-03T02:50:46.691Z,8.70
2023-02-03T02:53:57.327Z,8.70
2023-02-03T02:57:03.220Z,8.70
2023-02-03T03:00:08.091Z,8.70
2023-02-03T03:03:19.335Z,8.70
2023-02-03T03:06:23.633Z,8.70
2023-02-03T03:09:32.304Z,8.70
2023-02-03T03:12:40.696Z,8.70
2023-02-03T03:15:44.787Z,8.70
2023-02-03T03:18:53.453Z,8.70
2023-02-03T03:22:01.209Z,8.80
2023-02-03T03:25:18.853Z,8.70
2023-02-03T03:28:28.536Z,8.70
2023-02-03T03:31:31.055Z,8.80
2023-02-03T03:34:33.482Z,8.90
2023-02-03T03:37:56.116Z,8.80
2023-02-03T03:41:12.195Z,8.80
2023-02-03T03:44:17.102Z,8.80
2023-02-03T03:47:34.128Z,8.80
2023-02-03T03:50:42.258Z,8.80
2023-02-03T03:53:47.612Z,8.80
2023-02-03T03:57:04.352Z,8.80
2023-02-03T04:00:09.417Z,8.80
2023-02-03T04:03:23.887Z,8.90
2023-02-03T04:06:25.963Z,8.90
2023-02-03T04:09:27.889Z,8.90
2023-02-03T04:12:29.986Z,8.80
2023-02-03T04:15:34.175Z,8.80
2023-02-03T04:18:36.033Z,8.70
2023-02-03T04:21:37.911Z,8.80
2023-02-03T04:24:39.781Z,8.60
2023-02-03T04:27:43.883Z,8.50
2023-02-03T04:30:46.041Z,8.50
2023-02-03T04:33:48.007Z,8.40
2023-02-03T04:36:50.055Z,8.50
2023-02-03T04:39:52.245Z,8.40
2023-02-03T04:42:54.213Z,8.40
2023-02-03T04:45:56.279Z,8.40
2023-02-03T04:48:58.416Z,8.40
2023-02-03T04:52:00.280Z,8.40
2023-02-03T04:55:02.184Z,8.50
2023-02-03T04:58:04.106Z,8.50
2023-02-03T05:01:09.149Z,8.50
2023-02-03T05:04:11.247Z,8.50
2023-02-03T05:07:13.112Z,8.60
2023-02-03T05:10:15.482Z,8.50
2023-02-03T05:13:17.381Z,8.50
2023-02-03T05:16:19.445Z,8.50
2023-02-03T05:19:21.390Z,8.50
2023-02-03T05:22:23.409Z,8.50
2023-02-03T05:25:25.311Z,8.50
2023-02-03T05:28:27.291Z,8.50
2023-02-03T05:31:29.259Z,8.50
2023-02-03T05:34:31.183Z,8.60
2023-02-03T05:37:33.075Z,8.60
2023-02-03T05:40:35.228Z,8.50
2023-02-03T05:43:37.982Z,8.60
2023-02-03T05:46:41.233Z,8.60
2023-02-03T05:49:43.127Z,8.60
2023-02-03T05:52:45.064Z,8.50
2023-02-03T05:55:46.994Z,8.50
2023-02-03T05:58:49.076Z,8.60
2023-02-03T06:01:50.948Z,8.60
2023-02-03T06:04:52.895Z,8.50
2023-02-03T06:07:55.229Z,8.50
2023-02-03T06:11:00.759Z,8.50
2023-02-03T06:14:03.645Z,8.50
2023-02-03T06:17:07.313Z,8.40
2023-02-03T06:20:11.225Z,8.40
2023-02-03T06:23:13.175Z,8.50
2023-02-03T06:26:15.116Z,8.50
2023-02-03T06:29:17.139Z,8.50
2023-02-03T06:32:19.355Z,8.40
2023-02-03T06:35:21.376Z,8.50
2023-02-03T06:38:23.678Z,8.40
2023-02-03T06:41:25.638Z,8.40
2023-02-03T06:44:29.783Z,8.40
2023-02-03T06:47:31.690Z,8.40
2023-02-03T06:50:34.357Z,8.30
2023-02-03T06:53:36.297Z,8.40
2023-02-03T06:56:38.397Z,8.30
2023-02-03T06:59:40.467Z,8.30
2023-02-03T07:02:42.544Z,8.30
2023-02-03T07:05:44.475Z,8.30
2023-02-03T07:08:46.658Z,8.40
2023-02-03T07:11:48.580Z,8.30
2023-02-03T07:14:50.454Z,8.40
2023-02-03T07:17:52.387Z,8.40
2023-02-03T07:20:54.253Z,8.40
2023-02-03T07:23:56.358Z,8.40
2023-02-03T07:26:58.427Z,8.30
2023-02-03T07:30:00.352Z,8.30
2023-02-03T07:33:02.662Z,8.40
2023-02-03T07:36:05.541Z,8.40
2023-02-03T07:39:07.385Z,8.40
2023-02-03T07:42:09.297Z,8.40
2023-02-03T07:45:18.374Z,8.40
2023-02-03T07:48:20.379Z,8.50
2023-02-03T07:51:22.351Z,8.50
2023-02-03T07:54:24.244Z,8.50
2023-02-03T07:57:26.504Z,8.40
2023-02-03T08:00:28.754Z,8.50
2023-02-03T08:03:30.992Z,8.40
2023-02-03T08:06:33.219Z,8.40
2023-02-03T08:09:35.239Z,8.50
2023-02-03T08:12:37.520Z,8.40
2023-02-03T08:15:39.669Z,8.40
2023-02-03T08:18:41.601Z,8.50
2023-02-03T08:21:45.781Z,8.50
2023-02-03T08:24:48.198Z,8.50
2023-02-03T08:27:50.247Z,8.60
2023-02-03T08:30:52.361Z,8.70
2023-02-03T08:33:54.375Z,8.70
2023-02-03T08:36:56.407Z,8.70
2023-02-03T08:39:59.426Z,8.70
2023-02-03T08:43:01.327Z,8.70
2023-02-03T08:46:05.355Z,8.70
2023-02-03T08:49:07.224Z,8.70
2023-02-03T08:52:12.178Z,8.70
2023-02-03T08:55:14.407Z,8.80
2023-02-03T08:58:16.694Z,8.80
2023-02-03T09:01:19.396Z,8.70
2023-02-03T09:04:21.970Z,8.80
2023-02-03T09:07:23.928Z,8.90
2023-02-03T09:10:26.578Z,8.90
2023-02-03T09:13:28.788Z,8.90
2023-02-03T09:16:30.830Z,9.00
2023-02-03T09:19:35.460Z,9.00
2023-02-03T09:22:38.474Z,9.00
2023-02-03T09:25:40.628Z,9.10
2023-02-03T09:28:42.994Z,9.10
2023-02-03T09:31:45.011Z,9.10
2023-02-03T09:34:49.710Z,9.20
2023-02-03T09:37:51.590Z,9.20
2023-02-03T09:41:10.585Z,9.20
2023-02-03T09:44:24.347Z,9.20
2023-02-03T09:47:34.919Z,9.20
2023-02-03T09:50:38.844Z,9.40
2023-02-03T09:53:48.466Z,9.40
2023-02-03T09:56:53.483Z,9.50
2023-02-03T09:59:59.657Z,9.50
2023-02-03T10:03:07.625Z,9.50
2023-02-03T10:06:21.401Z,9.40
2023-02-03T10:09:26.020Z,9.40
2023-02-03T10:13:09.555Z,9.40
2023-02-03T10:16:28.562Z,9.50
2023-02-03T10:19:43.833Z,9.40
2023-02-03T10:22:59.906Z,9.50
2023-02-03T10:26:06.432Z,9.50
2023-02-03T10:29:34.541Z,9.50
2023-02-03T10:32:36.679Z,9.40
2023-02-03T10:35:50.084Z,9.40
2023-02-03T10:39:00.742Z,9.50
2023-02-03T10:42:05.205Z,9.50
2023-02-03T10:45:11.823Z,9.60
2023-02-03T10:48:17.929Z,9.70
2023-02-03T10:51:35.028Z,9.80
2023-02-03T10:54:37.050Z,9.80
2023-02-03T10:57:39.427Z,9.90
2023-02-03T11:00:42.235Z,9.90
2023-02-03T11:03:53.449Z,9.90
2023-02-03T11:06:58.846Z,10.10
2023-02-03T11:10:00.774Z,10.30
2023-02-03T11:13:25.694Z,10.30
2023-02-03T11:16:27.735Z,10.10
2023-02-03T11:19:29.760Z,10.10
2023-02-03T11:22:34.422Z,10.10
2023-02-03T11:25:36.417Z,10.20
2023-02-03T11:28:42.845Z,10.30
2023-02-03T11:31:51.266Z,10.50
2023-02-03T11:35:03.309Z,10.40
2023-02-03T11:38:05.416Z,10.50
2023-02-03T11:41:15.701Z,10.40
2023-02-03T11:44:22.059Z,10.40
2023-02-03T11:47:24.232Z,10.40
2023-02-03T12:03:51.187Z,10.30
2023-02-03T12:07:20.181Z,10.20
2023-02-03T12:10:38.889Z,10.30
2023-02-03T12:13:55.915Z,10.40
2023-02-03T12:17:16.885Z,10.40
2023-02-03T12:20:18.675Z,10.30
2023-02-03T12:24:02.081Z,10.30
2023-02-03T12:27:24.480Z,10.20
2023-02-03T12:30:33.218Z,10.20
2023-02-03T12:33:42.015Z,10.20
2023-02-03T12:36:49.788Z,10.20
2023-02-03T12:40:04.702Z,10.20
2023-02-03T12:43:34.690Z,10.20
2023-02-03T12:46:44.061Z,10.10
2023-02-03T12:49:50.803Z,10.10
2023-02-03T12:53:18.728Z,10.10
2023-02-03T12:56:30.225Z,10.10
2023-02-03T12:59:34.312Z,10.10
2023-02-03T13:02:48.534Z,10.20
2023-02-03T13:06:04.852Z,10.20
2023-02-03T13:09:45.117Z,10.30
2023-02-03T13:12:53.024Z,10.30
2023-02-03T13:15:57.063Z,10.30
2023-02-03T13:19:04.607Z,10.20
2023-02-03T13:22:12.638Z,10.20
2023-02-03T13:25:40.287Z,10.20
2023-02-03T13:29:07.160Z,10.20
2023-02-03T13:32:24.206Z,10.20
2023-02-03T13:35:57.401Z,10.20
2023-02-03T13:39:37.487Z,10.30
2023-02-03T13:42:45.234Z,10.30
2023-02-03T13:45:51.175Z,10.20
2023-02-03T13:48:54.642Z,10.30
2023-02-03T13:51:57.167Z,10.20
2023-02-03T13:55:00.306Z,10.20
2023-02-03T13:58:21.951Z,10.20
2023-02-03T14:01:28.564Z,10.30
2023-02-03T14:04:30.463Z,10.20
2023-02-03T14:07:39.103Z,10.20
2023-02-03T14:10:41.131Z,10.20
2023-02-03T14:13:43.140Z,10.30
2023-02-03T14:16:48.173Z,10.20
2023-02-03T14:19:50.096Z,10.20
2023-02-03T14:23:00.112Z,10.10
2023-02-03T14:26:02.816Z,10.20
2023-02-03T14:29:06.058Z,10.10
2023-02-03T14:32:13.036Z,10.10
2023-02-03T14:35:18.273Z,10.10
2023-02-03T14:38:21.433Z,10.20
2023-02-03T14:41:59.869Z,10.10
2023-02-03T14:48:54.795Z,10.10
2023-02-03T14:52:11.520Z,10.10
2023-02-03T14:55:30.331Z,10.00
2023-02-03T14:58:41.382Z,10.00
2023-02-03T15:01:48.811Z,10.00
2023-02-03T15:04:52.358Z,10.00
2023-02-03T15:07:54.347Z,10.00
2023-02-03T15:10:56.430Z,10.00
2023-02-03T15:14:27.845Z,9.90
2023-02-03T15:17:36.658Z,10.00
2023-02-03T15:20:41.800Z,9.90
2023-02-03T15:23:45.326Z,9.90
2023-02-03T15:26:50.653Z,9.90
2023-02-03T15:29:53.107Z,9.90
2023-02-03T15:33:07.418Z,9.90
2023-02-03T15:36:20.456Z,9.90
2023-02-03T15:39:30.276Z,9.90
2023-02-03T15:42:51.735Z,9.90
2023-02-03T15:45:58.850Z,9.90
2023-02-03T15:52:24.468Z,9.80
2023-02-03T15:55:55.336Z,9.80
2023-02-03T16:02:17.811Z,9.70
2023-02-03T16:05:27.924Z,9.80
2023-02-03T16:08:39.600Z,9.70
2023-02-03T16:11:41.615Z,9.70
2023-02-03T16:14:50.059Z,9.70
2023-02-03T16:17:56.475Z,9.60
2023-02-03T16:20:58.482Z,9.70
2023-02-03T16:24:00.849Z,9.70
2023-02-03T16:27:25.256Z,9.60
2023-02-03T16:30:27.312Z,9.60
2023-02-03T16:33:32.343Z,9.70
2023-02-03T16:36:39.209Z,9.60
2023-02-03T16:39:42.147Z,9.60
2023-02-03T16:42:44.851Z,9.60
2023-02-03T16:45:57.760Z,9.60
2023-02-03T16:49:00.229Z,9.60
2023-02-03T16:52:08.759Z,9.50
2023-02-03T16:55:11.554Z,9.50
2023-02-03T16:58:13.671Z,9.60
2023-02-03T17:01:15.660Z,9.60
2023-02-03T17:04:17.818Z,9.60
2023-02-03T17:10:29.899Z,9.60
2023-02-03T17:13:36.961Z,9.60
2023-02-03T17:16:39.008Z,9.60
2023-02-03T17:19:44.027Z,9.60
2023-02-03T17:22:46.756Z,9.60
2023-02-03T17:25:55.161Z,9.60
2023-02-03T17:28:57.694Z,9.60
2023-02-03T17:31:59.941Z,9.60
2023-02-03T17:35:09.020Z,9.60
2023-02-03T17:38:13.245Z,9.60
2023-02-03T17:54:26.267Z,9.60
2023-02-03T17:57:28.212Z,9.70
2023-02-03T18:00:30.605Z,9.70
2023-02-03T18:03:32.857Z,9.70
2023-02-03T18:09:42.931Z,9.80
2023-02-03T18:12:45.021Z,9.70
2023-02-03T18:15:56.683Z,9.70
2023-02-03T18:19:00.198Z,9.70
2023-02-03T18:22:02.227Z,9.70
2023-02-03T18:25:04.462Z,9.70
2023-02-03T18:28:08.745Z,9.70
2023-02-03T18:31:14.668Z,9.70
2023-02-03T18:34:21.107Z,9.70
2023-02-03T18:37:23.108Z,9.80
2023-02-03T18:40:25.108Z,9.70
2023-02-03T18:43:27.117Z,9.70
2023-02-03T18:49:45.562Z,9.80
2023-02-03T18:52:47.619Z,9.70
2023-02-03T18:55:49.626Z,9.70
2023-02-03T18:58:51.926Z,9.70
2023-02-03T19:01:54.221Z,9.70
2023-02-03T19:04:58.454Z,9.70
2023-02-03T19:08:13.456Z,9.80
2023-02-03T19:11:15.641Z,9.70
2023-02-03T19:14:17.626Z,9.70
2023-02-03T19:17:19.680Z,9.70
2023-02-03T19:20:21.749Z,9.80
2023-02-03T19:23:29.807Z,9.80
2023-02-03T19:26:32.376Z,9.70
2023-02-03T19:29:34.354Z,9.70
2023-02-03T19:32:42.787Z,9.80
2023-02-03T19:35:44.762Z,9.80
2023-02-03T19:38:46.604Z,9.70
2023-02-03T19:41:55.009Z,9.80
2023-02-03T19:44:56.895Z,9.80
2023-02-03T19:47:58.825Z,9.80
2023-02-03T19:51:00.947Z,9.80
2023-02-03T19:54:03.624Z,9.80
2023-02-03T19:57:05.645Z,9.80
2023-02-03T20:00:11.300Z,9.80
2023-02-03T20:03:16.384Z,9.70
2023-02-03T20:06:18.440Z,9.80
2023-02-03T20:09:27.122Z,9.80
2023-02-03T20:15:36.032Z,9.70
2023-02-03T20:18:38.428Z,9.70
2023-02-03T20:21:47.070Z,9.70
2023-02-03T20:24:49.033Z,9.70
2023-02-03T20:27:51.029Z,9.70
2023-02-03T20:30:55.745Z,9.60
2023-02-03T20:33:57.981Z,9.60
2023-02-03T20:36:59.897Z,9.60
2023-02-03T20:40:02.230Z,9.60
2023-02-03T20:43:30.215Z,9.60
2023-02-03T20:46:32.081Z,9.60
2023-02-03T20:49:34.008Z,9.60
2023-02-03T20:52:35.928Z,9.70
2023-02-03T20:55:38.002Z,9.80
2023-02-03T20:58:40.908Z,9.70
2023-02-03T21:01:42.933Z,9.70
2023-02-03T21:04:45.484Z,9.70
2023-02-03T21:07:47.429Z,9.80
2023-02-03T21:10:49.382Z,9.80
2023-02-03T21:13:51.318Z,9.80
2023-02-03T21:16:59.889Z,9.80
2023-02-03T21:20:01.800Z,9.90
2023-02-03T21:23:09.746Z,9.90
2023-02-03T21:26:16.910Z,9.90
2023-02-03T21:29:29.946Z,9.90
2023-02-03T21:32:41.361Z,9.90
2023-02-03T21:35:43.261Z,9.90
2023-02-03T21:38:49.551Z,9.90
2023-02-03T21:41:51.499Z,9.90
2023-02-03T21:48:01.320Z,9.90
2023-02-03T21:51:21.331Z,9.90
2023-02-03T21:54:28.690Z,9.90
2023-02-03T21:57:32.075Z,9.90
2023-02-03T22:00:40.429Z,10.00
2023-02-03T22:03:53.102Z,10.00
2023-02-03T22:06:55.580Z,9.90
2023-02-03T22:09:57.493Z,9.90
2023-02-03T22:12:59.430Z,10.00
2023-02-03T22:16:01.497Z,9.90
2023-02-03T22:19:03.398Z,9.90
2023-02-03T22:22:05.400Z,10.00
2023-02-03T22:25:07.912Z,10.00
2023-02-03T22:28:09.839Z,10.00
2023-02-03T22:31:12.933Z,10.00
2023-02-03T22:34:15.003Z,10.00
2023-02-03T22:37:17.001Z,10.00
2023-02-03T22:40:23.728Z,10.00
2023-02-03T22:43:26.718Z,10.00
2023-02-03T22:46:28.717Z,10.00
2023-02-03T22:49:30.671Z,10.00
2023-02-03T22:52:32.885Z,10.00
2023-02-03T22:55:35.847Z,10.00
2023-02-03T22:58:37.764Z,10.00
2023-02-03T23:01:39.669Z,10.00
2023-02-03T23:04:41.632Z,10.10
2023-02-03T23:07:44.301Z,10.10
2023-02-03T23:10:46.599Z,10.00
2023-02-03T23:13:49.130Z,10.00
2023-02-03T23:16:51.053Z,10.00
2023-02-03T23:19:52.968Z,10.10
2023-02-03T23:22:54.836Z,10.00
2023-02-03T23:25:56.744Z,10.10
2023-02-03T23:28:58.723Z,10.00
2023-02-03T23:32:00.668Z,10.00
2023-02-03T23:35:02.965Z,10.00
2023-02-03T23:38:04.907Z,10.00
2023-02-03T23:41:06.852Z,10.00
2023-02-03T23:44:08.773Z,10.00
2023-02-03T23:47:10.728Z,10.00
2023-02-03T23:50:18.254Z,10.00
2023-02-03T23:53:20.228Z,10.00
2023-02-03T23:56:22.114Z,10.00
2023-02-03T23:59:24.821Z,9.90
